Time;durP1;ratioP1;P1;durP2;ratioP2;P2;SDS_P1;SDS_P2;PMS_P1;PMS_P2;Temp;Humidity;BMP_temperature;BMP_pressure;BME280_temperature;BME280_humidity;BME280_pressure;Samples;Min_cycle;Max_cycle;Signal;HPM_P1;HPM_P2
2023/12/24 00:01:31;;;;;;;7.68;2.92;;;;;;;;;;5079101;28;20051;-82
2023/12/24 00:03:57;;;;;;;11.98;2.97;;;;;;;;;;5080316;28;20418;-81
2023/12/24 00:06:23;;;;;;;11.15;3.88;;;;;;;;;;5097092;28;20398;-82
2023/12/24 00:08:49;;;;;;;11.43;2.70;;;;;;;;;;5096512;28;20047;-82
2023/12/24 00:11:16;;;;;;;14.82;3.28;;;;;;;;;;5079423;28;20131;-82
2023/12/24 00:13:42;;;;;;;11.45;3.08;;;;;;;;;;5096477;28;20134;-82
2023/12/24 00:16:08;;;;;;;13.00;3.00;;;;;;;;;;5079690;28;20055;-82
2023/12/24 00:18:34;;;;;;;15.63;3.35;;;;;;;;;;5096153;28;20043;-82
2023/12/24 00:21:00;;;;;;;13.02;2.33;;;;;;;;;;5080156;28;20134;-81
2023/12/24 00:23:26;;;;;;;9.90;3.05;;;;;;;;;;5100356;28;20491;-82
2023/12/24 00:25:52;;;;;;;11.20;2.90;;;;;;;;;;5099325;28;20074;-89
2023/12/24 00:28:18;;;;;;;15.30;2.85;;;;;;;;;;5100295;28;20108;-82
2023/12/24 00:30:45;;;;;;;16.45;3.40;;;;;;;;;;5100188;28;20047;-83
2023/12/24 00:33:11;;;;;;;9.55;2.78;;;;;;;;;;5100764;28;20096;-83
2023/12/24 00:35:37;;;;;;;11.48;2.28;;;;;;;;;;5083049;28;20507;-82
2023/12/24 00:38:03;;;;;;;17.90;2.40;;;;;;;;;;5082731;28;20055;-83
2023/12/24 00:40:30;;;;;;;13.50;2.50;;;;;;;;;;5099981;28;20047;-82
2023/12/24 00:42:56;;;;;;;11.65;2.45;;;;;;;;;;5083416;28;20055;-82
2023/12/24 00:45:22;;;;;;;15.57;3.05;;;;;;;;;;5083153;28;20043;-82
2023/12/24 00:47:48;;;;;;;13.85;2.67;;;;;;;;;;5083330;28;20395;-83
2023/12/24 00:50:14;;;;;;;14.57;2.47;;;;;;;;;;5083199;28;20054;-82
2023/12/24 00:52:41;;;;;;;13.52;2.70;;;;;;;;;;5082896;28;20054;-84
2023/12/24 00:55:08;;;;;;;9.77;1.98;;;;;;;;;;5100545;28;20051;-84
2023/12/24 00:57:36;;;;;;;9.73;1.75;;;;;;;;;;5082674;28;20387;-82
2023/12/24 01:00:03;;;;;;;15.95;2.28;;;;;;;;;;5082632;28;20048;-83
2023/12/24 01:02:29;;;;;;;12.32;2.03;;;;;;;;;;5081984;28;20097;-82
2023/12/24 01:04:55;;;;;;;14.32;3.03;;;;;;;;;;5099831;28;20142;-82
2023/12/24 01:07:21;;;;;;;11.95;2.45;;;;;;;;;;5083427;28;20039;-82
2023/12/24 01:09:47;;;;;;;10.88;2.47;;;;;;;;;;5099669;28;20047;-82
2023/12/24 01:12:13;;;;;;;12.48;2.70;;;;;;;;;;5099395;28;20048;-82
2023/12/24 01:14:39;;;;;;;11.30;2.33;;;;;;;;;;5100099;28;20142;-82
2023/12/24 01:17:05;;;;;;;11.48;2.42;;;;;;;;;;5098960;28;20109;-80
2023/12/24 01:19:31;;;;;;;9.70;2.70;;;;;;;;;;5099058;28;20050;-80
2023/12/24 01:21:57;;;;;;;11.27;2.25;;;;;;;;;;5099258;28;20059;-80
2023/12/24 01:24:23;;;;;;;12.77;2.33;;;;;;;;;;5099198;28;20364;-79
2023/12/24 01:26:49;;;;;;;14.63;2.58;;;;;;;;;;5099347;28;20087;-80
2023/12/24 01:29:15;;;;;;;14.38;3.08;;;;;;;;;;5099337;28;20047;-79
2023/12/24 01:31:41;;;;;;;10.80;2.47;;;;;;;;;;5082408;28;20055;-79
2023/12/24 01:34:08;;;;;;;11.73;2.78;;;;;;;;;;5097386;28;20086;-79
2023/12/24 01:36:34;;;;;;;12.90;2.10;;;;;;;;;;5099744;28;20134;-79
2023/12/24 01:39:01;;;;;;;8.38;1.88;;;;;;;;;;5081682;28;20139;-79
2023/12/24 01:41:27;;;;;;;9.88;1.77;;;;;;;;;;5098799;28;20049;-79
2023/12/24 01:43:53;;;;;;;12.98;1.95;;;;;;;;;;5098761;28;20059;-79
2023/12/24 01:46:24;;;;;;;11.98;2.15;;;;;;;;;;5098733;28;20093;-79
2023/12/24 01:48:50;;;;;;;12.32;1.70;;;;;;;;;;5099509;28;20048;-79
2023/12/24 01:51:18;;;;;;;8.70;1.75;;;;;;;;;;5098710;28;20478;-79
2023/12/24 01:53:45;;;;;;;9.55;1.73;;;;;;;;;;5116536;28;20048;-78
2023/12/24 01:56:11;;;;;;;12.75;1.70;;;;;;;;;;5099056;28;20054;-78
2023/12/24 01:58:37;;;;;;;12.77;1.67;;;;;;;;;;5098099;28;20082;-78
2023/12/24 02:01:03;;;;;;;9.05;1.50;;;;;;;;;;5098423;28;20056;-78
2023/12/24 02:03:29;;;;;;;9.60;1.65;;;;;;;;;;5098404;28;20377;-78
2023/12/24 02:05:56;;;;;;;10.38;1.45;;;;;;;;;;5116326;28;20479;-78
2023/12/24 02:08:22;;;;;;;12.43;1.42;;;;;;;;;;5117130;28;20043;-78
2023/12/24 02:10:49;;;;;;;13.68;1.48;;;;;;;;;;5081584;28;20049;-78
2023/12/24 02:13:15;;;;;;;14.07;1.77;;;;;;;;;;5098159;28;20043;-78
2023/12/24 02:15:42;;;;;;;8.35;1.42;;;;;;;;;;5098136;28;20055;-77
2023/12/24 02:18:08;;;;;;;8.98;1.35;;;;;;;;;;5098355;28;20475;-77
2023/12/24 02:20:34;;;;;;;9.90;1.20;;;;;;;;;;5081143;28;20043;-78
2023/12/24 02:23:00;;;;;;;11.95;2.17;;;;;;;;;;5098850;28;20096;-78
2023/12/24 02:25:27;;;;;;;6.57;1.20;;;;;;;;;;5115908;28;20052;-77
2023/12/24 02:27:59;;;;;;;4.38;1.42;;;;;;;;;;5097522;28;20088;-78
2023/12/24 02:30:31;;;;;;;7.68;1.35;;;;;;;;;;5098750;28;20051;-78
2023/12/24 02:32:57;;;;;;;7.10;1.50;;;;;;;;;;5116327;28;20048;-79
2023/12/24 02:35:26;;;;;;;5.75;1.58;;;;;;;;;;5115828;28;20048;-78
2023/12/24 02:37:52;;;;;;;6.78;1.58;;;;;;;;;;5097754;28;20436;-79
2023/12/24 02:40:18;;;;;;;6.25;1.80;;;;;;;;;;5080594;28;20517;-80
2023/12/24 02:42:44;;;;;;;10.32;1.77;;;;;;;;;;5098496;28;20391;-80
2023/12/24 02:45:10;;;;;;;11.15;2.28;;;;;;;;;;5080628;28;20047;-80
2023/12/24 02:47:37;;;;;;;6.13;2.08;;;;;;;;;;5097806;28;20047;-81
2023/12/24 02:50:04;;;;;;;7.68;2.33;;;;;;;;;;5097477;28;20498;-81
2023/12/24 02:52:30;;;;;;;8.48;2.60;;;;;;;;;;5098248;28;20188;-81
2023/12/24 02:54:56;;;;;;;8.88;2.88;;;;;;;;;;5097677;28;20058;-81
2023/12/24 02:57:22;;;;;;;6.72;2.67;;;;;;;;;;5097387;28;20050;-80
2023/12/24 02:59:48;;;;;;;5.15;2.40;;;;;;;;;;5097213;28;20493;-81
2023/12/24 03:02:14;;;;;;;4.93;2.88;;;;;;;;;;5097055;28;20408;-79
2023/12/24 03:04:40;;;;;;;3.50;2.80;;;;;;;;;;5097787;28;20060;-79
2023/12/24 03:07:06;;;;;;;6.15;2.42;;;;;;;;;;5096841;28;20100;-79
2023/12/24 03:09:32;;;;;;;6.43;2.53;;;;;;;;;;5096960;28;20035;-79
2023/12/24 03:11:59;;;;;;;5.28;1.95;;;;;;;;;;5097330;28;20075;-79
2023/12/24 03:14:25;;;;;;;8.75;2.78;;;;;;;;;;5096531;28;20484;-79
2023/12/24 03:16:51;;;;;;;4.28;2.15;;;;;;;;;;5097264;28;20380;-79
2023/12/24 03:19:17;;;;;;;5.85;2.20;;;;;;;;;;5114745;28;20043;-79
2023/12/24 03:21:43;;;;;;;8.68;2.72;;;;;;;;;;5097749;28;20051;-78
2023/12/24 03:24:09;;;;;;;4.20;2.50;;;;;;;;;;5097660;28;20112;-78
2023/12/24 03:26:35;;;;;;;5.57;3.13;;;;;;;;;;5097534;28;20052;-78
2023/12/24 03:29:02;;;;;;;5.50;2.33;;;;;;;;;;5115489;28;20431;-78
2023/12/24 03:31:28;;;;;;;5.60;2.85;;;;;;;;;;5096696;28;20047;-78
2023/12/24 03:33:55;;;;;;;3.58;2.30;;;;;;;;;;5096639;28;20101;-79
2023/12/24 03:36:21;;;;;;;6.75;2.83;;;;;;;;;;5096868;28;20440;-79
2023/12/24 03:38:47;;;;;;;4.55;2.03;;;;;;;;;;5096515;28;20047;-79
2023/12/24 03:41:13;;;;;;;9.73;2.88;;;;;;;;;;5079762;28;20051;-79
2023/12/24 03:43:39;;;;;;;8.82;2.45;;;;;;;;;;5096876;28;20039;-79
2023/12/24 03:46:05;;;;;;;3.47;1.77;;;;;;;;;;5097344;28;20134;-79
2023/12/24 03:48:33;;;;;;;3.80;1.88;;;;;;;;;;5079417;28;20055;-79
2023/12/24 03:50:59;;;;;;;4.90;2.45;;;;;;;;;;5079676;28;20399;-80
2023/12/24 03:53:25;;;;;;;3.75;1.65;;;;;;;;;;5096481;28;20050;-80
2023/12/24 03:55:51;;;;;;;4.53;1.77;;;;;;;;;;5095635;28;20100;-80
2023/12/24 03:58:17;;;;;;;4.72;1.48;;;;;;;;;;5096310;28;20070;-81
2023/12/24 04:00:43;;;;;;;4.00;1.85;;;;;;;;;;5096439;28;20043;-80
2023/12/24 04:03:09;;;;;;;3.72;1.98;;;;;;;;;;5095620;28;20047;-80
2023/12/24 04:05:35;;;;;;;4.30;1.50;;;;;;;;;;5096293;28;20490;-80
2023/12/24 04:08:01;;;;;;;4.65;1.38;;;;;;;;;;5096319;28;20087;-80
2023/12/24 04:10:27;;;;;;;5.63;1.50;;;;;;;;;;5096242;28;20058;-81
2023/12/24 04:12:53;;;;;;;5.82;2.00;;;;;;;;;;5095933;28;20542;-82
2023/12/24 04:15:20;;;;;;;4.35;1.08;;;;;;;;;;5079362;28;20083;-82
2023/12/24 04:17:46;;;;;;;2.78;1.25;;;;;;;;;;5080182;28;20051;-82
2023/12/24 04:20:13;;;;;;;5.45;1.35;;;;;;;;;;5079269;28;20040;-81
2023/12/24 04:22:39;;;;;;;2.67;1.60;;;;;;;;;;5096127;28;20051;-81
2023/12/24 04:25:05;;;;;;;5.30;1.38;;;;;;;;;;5096116;28;20046;-80
2023/12/24 04:27:31;;;;;;;3.08;1.05;;;;;;;;;;5095980;28;20043;-81
2023/12/24 04:29:57;;;;;;;5.00;1.30;;;;;;;;;;5096870;28;20383;-81
2023/12/24 04:32:23;;;;;;;4.32;1.35;;;;;;;;;;5096028;28;20051;-81
2023/12/24 04:34:50;;;;;;;3.63;1.70;;;;;;;;;;5079121;28;20104;-80
2023/12/24 04:37:16;;;;;;;3.47;1.10;;;;;;;;;;5079117;28;20079;-80
2023/12/24 04:39:42;;;;;;;2.50;1.17;;;;;;;;;;5078862;28;20459;-80
2023/12/24 04:42:08;;;;;;;3.95;1.30;;;;;;;;;;5095625;28;20476;-80
2023/12/24 04:44:37;;;;;;;2.80;1.48;;;;;;;;;;5095905;28;20043;-80
2023/12/24 04:47:03;;;;;;;1.40;0.80;;;;;;;;;;5078918;28;20104;-80
2023/12/24 04:49:29;;;;;;;3.70;0.90;;;;;;;;;;5095880;28;20104;-80
2023/12/24 04:51:55;;;;;;;3.03;0.70;;;;;;;;;;5079890;28;20134;-80
2023/12/24 04:54:22;;;;;;;2.30;0.52;;;;;;;;;;5096146;28;20048;-80
2023/12/24 04:56:48;;;;;;;1.58;0.70;;;;;;;;;;5095710;28;20113;-79
2023/12/24 04:59:14;;;;;;;1.30;0.60;;;;;;;;;;5095881;28;20083;-79
2023/12/24 05:01:40;;;;;;;2.15;0.60;;;;;;;;;;5096285;28;20396;-80
2023/12/24 05:04:07;;;;;;;0.70;0.40;;;;;;;;;;5095353;28;20043;-79
2023/12/24 05:06:33;;;;;;;1.08;0.60;;;;;;;;;;5095436;28;20062;-79
2023/12/24 05:08:59;;;;;;;0.68;0.43;;;;;;;;;;5099230;28;20399;-79
2023/12/24 05:11:25;;;;;;;3.17;0.40;;;;;;;;;;5099599;28;20375;-79
2023/12/24 05:13:52;;;;;;;2.00;0.40;;;;;;;;;;5099939;28;20386;-79
2023/12/24 05:16:18;;;;;;;1.63;0.30;;;;;;;;;;5099005;28;20039;-79
2023/12/24 05:18:44;;;;;;;2.05;0.50;;;;;;;;;;5099141;28;20084;-79
2023/12/24 05:21:10;;;;;;;1.48;0.38;;;;;;;;;;5100105;28;20039;-79
2023/12/24 05:23:36;;;;;;;1.73;0.43;;;;;;;;;;5099176;28;20044;-79
2023/12/24 05:26:02;;;;;;;1.98;0.50;;;;;;;;;;5098857;28;20048;-80
2023/12/24 05:28:28;;;;;;;0.75;0.40;;;;;;;;;;5082283;28;20399;-80
2023/12/24 05:30:54;;;;;;;0.93;0.30;;;;;;;;;;5099847;28;20364;-79
2023/12/24 05:33:20;;;;;;;1.02;0.50;;;;;;;;;;5099736;28;20130;-79
2023/12/24 05:35:46;;;;;;;0.47;0.30;;;;;;;;;;5099554;28;20062;-79
2023/12/24 05:38:12;;;;;;;1.45;0.40;;;;;;;;;;5098822;28;20058;-80
2023/12/24 05:40:38;;;;;;;1.27;0.30;;;;;;;;;;5081912;28;20055;-80
2023/12/24 05:43:04;;;;;;;1.13;0.32;;;;;;;;;;5098842;28;20126;-80
2023/12/24 05:45:32;;;;;;;2.55;0.40;;;;;;;;;;5099013;28;20372;-80
2023/12/24 05:47:58;;;;;;;0.93;0.40;;;;;;;;;;5098436;28;20048;-80
2023/12/24 05:50:24;;;;;;;1.00;0.40;;;;;;;;;;5098721;28;20429;-80
2023/12/24 05:52:50;;;;;;;1.65;0.40;;;;;;;;;;5099418;28;20383;-80
2023/12/24 05:55:16;;;;;;;1.60;0.40;;;;;;;;;;5098597;28;20052;-80
2023/12/24 05:57:42;;;;;;;1.50;0.50;;;;;;;;;;5116932;28;20047;-79
2023/12/24 06:00:09;;;;;;;1.85;0.50;;;;;;;;;;5097861;28;20040;-79
2023/12/24 06:02:35;;;;;;;0.93;0.60;;;;;;;;;;5081203;28;20056;-79
2023/12/24 06:05:02;;;;;;;1.55;0.60;;;;;;;;;;5098538;28;20093;-79
2023/12/24 06:07:28;;;;;;;1.50;1.02;;;;;;;;;;5081403;28;20472;-78
2023/12/24 06:09:54;;;;;;;1.50;0.70;;;;;;;;;;5081165;28;20508;-78
2023/12/24 06:12:20;;;;;;;2.78;0.90;;;;;;;;;;5098511;28;20380;-79
2023/12/24 06:14:46;;;;;;;1.55;0.95;;;;;;;;;;5116673;28;20048;-78
2023/12/24 06:17:12;;;;;;;2.17;1.02;;;;;;;;;;5098122;28;20487;-79
2023/12/24 06:19:38;;;;;;;1.35;0.95;;;;;;;;;;5080550;28;20050;-79
2023/12/24 06:22:05;;;;;;;3.65;1.30;;;;;;;;;;5098324;28;20052;-78
2023/12/24 06:24:31;;;;;;;2.38;1.20;;;;;;;;;;5097967;28;20054;-79
2023/12/24 06:26:57;;;;;;;4.93;1.02;;;;;;;;;;5097749;28;20043;-78
2023/12/24 06:29:23;;;;;;;3.50;1.70;;;;;;;;;;5097772;28;20084;-78
2023/12/24 06:31:49;;;;;;;3.03;1.70;;;;;;;;;;5098061;28;20055;-79
2023/12/24 06:34:15;;;;;;;3.20;1.80;;;;;;;;;;5097792;28;20131;-78
2023/12/24 06:36:41;;;;;;;2.15;1.58;;;;;;;;;;5098332;28;20047;-80
2023/12/24 06:39:07;;;;;;;5.95;2.33;;;;;;;;;;5080562;28;20055;-79
2023/12/24 06:41:33;;;;;;;6.38;2.50;;;;;;;;;;5080695;28;20475;-81
2023/12/24 06:43:59;;;;;;;4.60;2.58;;;;;;;;;;5081584;28;20536;-80
2023/12/24 06:46:25;;;;;;;6.20;2.97;;;;;;;;;;5097997;28;20543;-79
2023/12/24 06:48:52;;;;;;;6.78;2.88;;;;;;;;;;5097528;28;20047;-79
2023/12/24 06:51:18;;;;;;;4.75;3.38;;;;;;;;;;5098240;28;20512;-79
2023/12/24 06:53:44;;;;;;;7.53;3.40;;;;;;;;;;5098267;28;20341;-79
2023/12/24 06:56:10;;;;;;;5.22;2.83;;;;;;;;;;5097347;28;20476;-79
2023/12/24 06:58:36;;;;;;;7.10;3.97;;;;;;;;;;5080062;28;20047;-79
2023/12/24 07:01:03;;;;;;;11.85;4.35;;;;;;;;;;5097493;28;20040;-79
2023/12/24 07:03:29;;;;;;;10.77;4.47;;;;;;;;;;5097986;28;20138;-79
2023/12/24 07:05:56;;;;;;;15.70;4.97;;;;;;;;;;5096962;28;20047;-79
2023/12/24 07:08:22;;;;;;;11.70;4.57;;;;;;;;;;5097478;28;20043;-80
2023/12/24 07:10:48;;;;;;;9.98;4.20;;;;;;;;;;5097110;28;20130;-80
2023/12/24 07:13:15;;;;;;;11.15;5.00;;;;;;;;;;5080259;28;20059;-80
2023/12/24 07:15:42;;;;;;;11.60;5.18;;;;;;;;;;5097057;28;20043;-80
2023/12/24 07:18:08;;;;;;;10.15;4.45;;;;;;;;;;5097287;28;20445;-80
2023/12/24 07:20:35;;;;;;;14.68;5.18;;;;;;;;;;5097404;28;20040;-80
2023/12/24 07:23:01;;;;;;;13.57;5.15;;;;;;;;;;5096636;28;20043;-80
2023/12/24 07:25:27;;;;;;;14.38;4.28;;;;;;;;;;5097716;28;20048;-80
2023/12/24 07:27:53;;;;;;;16.27;5.07;;;;;;;;;;5097123;28;20039;-80
2023/12/24 07:30:19;;;;;;;15.02;5.13;;;;;;;;;;5096876;28;20052;-80
2023/12/24 07:32:45;;;;;;;10.52;3.97;;;;;;;;;;5096843;28;20090;-81
2023/12/24 07:35:12;;;;;;;10.95;4.70;;;;;;;;;;5079786;28;20078;-81
2023/12/24 07:37:38;;;;;;;12.18;4.65;;;;;;;;;;5080562;28;20422;-81
2023/12/24 07:40:08;;;;;;;14.45;3.95;;;;;;;;;;5096073;28;20039;-81
2023/12/24 07:42:34;;;;;;;13.40;4.13;;;;;;;;;;5080070;28;20095;-81
2023/12/24 07:45:00;;;;;;;21.13;5.00;;;;;;;;;;5096653;28;20139;-81
2023/12/24 07:47:26;;;;;;;12.73;3.75;;;;;;;;;;5080613;28;20043;-81
2023/12/24 07:49:52;;;;;;;15.00;4.78;;;;;;;;;;5079651;28;20048;-81
2023/12/24 07:52:18;;;;;;;11.35;4.05;;;;;;;;;;5096519;28;20134;-81
2023/12/24 07:54:45;;;;;;;10.73;4.03;;;;;;;;;;5096360;28;20043;-82
2023/12/24 07:57:11;;;;;;;14.15;5.25;;;;;;;;;;5079358;28;20050;-81
2023/12/24 07:59:37;;;;;;;15.88;5.10;;;;;;;;;;5079505;28;20089;-81
2023/12/24 08:02:03;;;;;;;13.50;3.88;;;;;;;;;;5079253;28;20068;-81
2023/12/24 08:04:30;;;;;;;14.93;4.93;;;;;;;;;;5096239;28;20046;-81
2023/12/24 08:06:56;;;;;;;14.82;4.75;;;;;;;;;;5096218;28;20050;-81
2023/12/24 08:09:22;;;;;;;14.98;4.45;;;;;;;;;;5096286;28;20104;-81
2023/12/24 08:11:48;;;;;;;21.88;5.97;;;;;;;;;;5096230;28;20052;-81
2023/12/24 08:14:14;;;;;;;16.27;4.53;;;;;;;;;;5096154;28;20051;-81
2023/12/24 08:16:40;;;;;;;21.48;6.07;;;;;;;;;;5079752;28;20093;-81
2023/12/24 08:19:07;;;;;;;15.35;5.28;;;;;;;;;;5079405;28;20048;-81
2023/12/24 08:21:33;;;;;;;20.40;5.00;;;;;;;;;;5096167;28;20047;-81
2023/12/24 08:23:59;;;;;;;15.25;5.20;;;;;;;;;;5079459;28;20048;-81
2023/12/24 08:26:26;;;;;;;16.25;5.55;;;;;;;;;;5095745;28;20131;-81
2023/12/24 08:28:52;;;;;;;15.77;5.38;;;;;;;;;;5095687;28;20044;-81
2023/12/24 08:31:18;;;;;;;20.25;5.82;;;;;;;;;;5096035;28;20074;-81
2023/12/24 08:33:44;;;;;;;17.70;6.00;;;;;;;;;;5079196;28;20043;-81
2023/12/24 08:36:11;;;;;;;18.00;5.32;;;;;;;;;;5079080;28;20048;-81
2023/12/24 08:38:37;;;;;;;20.73;5.88;;;;;;;;;;5095882;28;20048;-81
2023/12/24 08:41:03;;;;;;;23.05;5.55;;;;;;;;;;5096435;28;20044;-81
2023/12/24 08:43:29;;;;;;;19.20;5.75;;;;;;;;;;5099068;28;20135;-81
2023/12/24 08:45:59;;;;;;;16.77;5.32;;;;;;;;;;5100245;28;20054;-80
2023/12/24 08:48:25;;;;;;;17.20;5.90;;;;;;;;;;5100170;28;20425;-80
2023/12/24 08:50:52;;;;;;;21.85;6.18;;;;;;;;;;5100145;28;20134;-81
2023/12/24 08:53:18;;;;;;;23.17;5.35;;;;;;;;;;5100036;28;20039;-80
2023/12/24 08:55:44;;;;;;;17.63;4.80;;;;;;;;;;5082825;28;20058;-81
2023/12/24 08:58:10;;;;;;;19.55;5.18;;;;;;;;;;5099929;28;20055;-81
2023/12/24 09:00:36;;;;;;;12.98;4.13;;;;;;;;;;5082152;28;20040;-81
2023/12/24 09:03:02;;;;;;;15.52;4.43;;;;;;;;;;5099161;28;20518;-80
2023/12/24 09:05:28;;;;;;;16.65;4.70;;;;;;;;;;5099550;28;20043;-80
2023/12/24 09:07:54;;;;;;;16.95;4.68;;;;;;;;;;5082694;28;20043;-81
2023/12/24 09:10:21;;;;;;;17.92;5.15;;;;;;;;;;5082570;28;20047;-81
2023/12/24 09:12:47;;;;;;;15.13;4.43;;;;;;;;;;5082506;28;20552;-81
2023/12/24 09:15:13;;;;;;;13.25;4.50;;;;;;;;;;5099398;28;20104;-81
2023/12/24 09:17:40;;;;;;;16.48;4.47;;;;;;;;;;5083352;28;20383;-80
2023/12/24 09:20:07;;;;;;;12.35;3.65;;;;;;;;;;5082344;28;20513;-84
2023/12/24 09:22:33;;;;;;;9.95;2.85;;;;;;;;;;5117116;28;20043;-82
2023/12/24 09:24:59;;;;;;;15.90;3.65;;;;;;;;;;5083234;28;20100;-81
2023/12/24 09:27:25;;;;;;;14.13;3.33;;;;;;;;;;5099102;28;20050;-81
2023/12/24 09:29:51;;;;;;;8.63;2.58;;;;;;;;;;5099151;28;20052;-81
2023/12/24 09:32:17;;;;;;;8.95;2.78;;;;;;;;;;5082446;28;20051;-81
2023/12/24 09:34:46;;;;;;;10.75;3.03;;;;;;;;;;5099141;28;20558;-81
2023/12/24 09:37:12;;;;;;;9.52;2.90;;;;;;;;;;5098973;28;20061;-81
2023/12/24 09:39:38;;;;;;;11.98;2.75;;;;;;;;;;5098778;28;20043;-81
2023/12/24 09:42:05;;;;;;;10.05;2.38;;;;;;;;;;5099169;28;20130;-80
2023/12/24 09:44:31;;;;;;;11.82;2.85;;;;;;;;;;5082093;28;20542;-81
2023/12/24 09:46:57;;;;;;;10.32;2.90;;;;;;;;;;5099060;28;20138;-81
2023/12/24 09:49:23;;;;;;;9.05;3.13;;;;;;;;;;5098719;28;20556;-80
2023/12/24 09:51:49;;;;;;;12.07;3.13;;;;;;;;;;5098746;28;20454;-80
2023/12/24 09:54:15;;;;;;;10.85;3.20;;;;;;;;;;5080546;28;20054;-81
2023/12/24 09:56:41;;;;;;;8.95;2.85;;;;;;;;;;5099170;28;20471;-81
2023/12/24 09:59:07;;;;;;;9.75;3.30;;;;;;;;;;5098398;28;20040;-80
2023/12/24 10:01:43;;;;;;;14.63;3.78;;;;;;;;;;5082323;28;20059;-80
2023/12/24 10:04:10;;;;;;;16.40;4.60;;;;;;;;;;5081795;28;20059;-81
2023/12/24 10:06:52;;;;;;;16.48;4.13;;;;;;;;;;5081843;28;20383;-81
2023/12/24 10:09:21;;;;;;;14.13;4.47;;;;;;;;;;5098347;28;20094;-81
2023/12/24 10:12:02;;;;;;;23.58;4.40;;;;;;;;;;5098350;28;20051;-80
2023/12/24 10:14:28;;;;;;;17.23;4.25;;;;;;;;;;5098016;28;20055;-81
2023/12/24 10:16:55;;;;;;;17.17;4.45;;;;;;;;;;5081422;28;20043;-81
2023/12/24 10:19:23;;;;;;;19.73;4.25;;;;;;;;;;5098017;28;20464;-81
2023/12/24 10:22:19;;;;;;;18.58;4.35;;;;;;;;;;5099005;28;20128;-80
2023/12/24 10:24:45;;;;;;;;;;;;;;;;;;5060622;28;20051;-81
2023/12/24 10:27:13;;;;;;;12.55;3.20;;;;;;;;;;5098016;28;19923;-81
2023/12/24 10:29:43;;;;;;;20.00;3.85;;;;;;;;;;5098509;28;20051;-81
2023/12/24 10:32:12;;;;;;;14.07;3.75;;;;;;;;;;5098703;28;20108;-81
2023/12/24 10:34:39;;;;;;;8.73;2.45;;;;;;;;;;5098626;28;20054;-81
2023/12/24 10:37:34;;;;;;;13.52;3.28;;;;;;;;;;5097532;28;20043;-81
2023/12/24 10:40:08;;;;;;;7.07;2.70;;;;;;;;;;5076482;28;20048;-81
2023/12/24 10:42:34;;;;;;;11.73;2.77;;;;;;;;;;5098015;28;20130;-81
2023/12/24 10:45:00;;;;;;;10.10;2.50;;;;;;;;;;5080964;28;20050;-80
2023/12/24 10:47:26;;;;;;;14.65;3.17;;;;;;;;;;5097581;28;20065;-80
2023/12/24 10:49:52;;;;;;;13.65;2.65;;;;;;;;;;5098427;28;20048;-81
2023/12/24 10:52:19;;;;;;;15.50;3.33;;;;;;;;;;5080683;28;20047;-81
2023/12/24 10:54:46;;;;;;;13.77;2.80;;;;;;;;;;5080724;28;20039;-81
2023/12/24 10:57:12;;;;;;;14.45;2.95;;;;;;;;;;5097326;28;20075;-80
2023/12/24 10:59:47;;;;;;;12.25;3.88;;;;;;;;;;5097715;28;20122;-80
2023/12/24 11:02:14;;;;;;;11.82;3.10;;;;;;;;;;5096931;28;20055;-80
2023/12/24 11:04:48;;;;;;;12.30;3.40;;;;;;;;;;5115541;28;20112;-80
2023/12/24 11:07:32;;;;;;;14.73;3.08;;;;;;;;;;5097268;28;20082;-80
2023/12/24 11:10:00;;;;;;;7.93;2.97;;;;;;;;;;5097223;28;20051;-80
2023/12/24 11:12:31;;;;;;;12.73;3.58;;;;;;;;;;5080261;28;20399;-80
2023/12/24 11:14:57;;;;;;;12.55;3.55;;;;;;;;;;5097331;28;20479;-80
2023/12/24 11:17:39;;;;;;;14.98;2.75;;;;;;;;;;5097088;28;20047;-80
2023/12/24 11:20:27;;;;;;;12.35;3.50;;;;;;;;;;5097575;28;20047;-80
2023/12/24 11:23:05;;;;;;;11.93;2.78;;;;;;;;;;5080027;28;20050;-80
2023/12/24 11:26:01;;;;;;;17.73;4.20;;;;;;;;;;5096858;28;20046;-80
2023/12/24 11:28:27;;;;;;;;;;;;;;;;;;5076032;28;20052;-80
2023/12/24 11:30:53;;;;;;;16.00;4.47;;;;;;;;;;5096874;28;20386;-80
2023/12/24 11:33:28;;;;;;;16.50;4.55;;;;;;;;;;5097641;28;20048;-80
2023/12/24 11:36:01;;;;;;;15.82;4.50;;;;;;;;;;5096422;28;20039;-80
2023/12/24 11:38:36;;;;;;;14.52;4.93;;;;;;;;;;5096816;28;20384;-79
2023/12/24 11:41:06;;;;;;;17.08;4.60;;;;;;;;;;5096704;28;20077;-80
2023/12/24 11:43:33;;;;;;;14.60;4.63;;;;;;;;;;5080516;28;20357;-80
2023/12/24 11:45:59;;;;;;;17.98;4.55;;;;;;;;;;5096543;28;20058;-79
2023/12/24 11:48:29;;;;;;;16.30;4.53;;;;;;;;;;5097397;28;20079;-79
2023/12/24 11:51:04;;;;;;;15.15;3.53;;;;;;;;;;5096489;28;20043;-80
2023/12/24 11:53:32;;;;;;;20.67;4.63;;;;;;;;;;5096474;28;20142;-80
2023/12/24 11:56:15;;;;;;;13.90;4.30;;;;;;;;;;5096674;28;20101;-80
2023/12/24 11:58:42;;;;;;;13.65;4.05;;;;;;;;;;5096109;28;20043;-80
2023/12/24 12:01:09;;;;;;;12.85;3.35;;;;;;;;;;5096283;28;20089;-80
2023/12/24 12:03:35;;;;;;;12.02;3.55;;;;;;;;;;5095643;28;20459;-81
2023/12/24 12:06:02;;;;;;;13.63;4.72;;;;;;;;;;5079429;28;20051;-81
2023/12/24 12:08:30;;;;;;;15.38;4.00;;;;;;;;;;5096197;28;20059;-80
2023/12/24 12:10:56;;;;;;;16.63;4.22;;;;;;;;;;5079295;28;20044;-81
2023/12/24 12:13:22;;;;;;;15.90;3.72;;;;;;;;;;5096425;28;20465;-81
2023/12/24 12:15:48;;;;;;;15.63;3.88;;;;;;;;;;5096201;28;20403;-81
2023/12/24 12:18:15;;;;;;;14.77;3.60;;;;;;;;;;5095527;28;20139;-80
2023/12/24 12:20:42;;;;;;;12.43;2.75;;;;;;;;;;5095842;28;20048;-81
2023/12/24 12:23:08;;;;;;;10.75;3.10;;;;;;;;;;5096022;28;20047;-81
2023/12/24 12:25:34;;;;;;;16.95;3.92;;;;;;;;;;5096091;28;20087;-81
2023/12/24 12:28:00;;;;;;;15.90;3.83;;;;;;;;;;5096223;28;20365;-81
2023/12/24 12:30:26;;;;;;;15.98;2.97;;;;;;;;;;5079225;28;20089;-81
2023/12/24 12:32:53;;;;;;;13.13;2.85;;;;;;;;;;5096915;28;20184;-80
2023/12/24 12:35:19;;;;;;;13.55;2.60;;;;;;;;;;5095969;28;20487;-81
2023/12/24 12:37:45;;;;;;;11.43;2.83;;;;;;;;;;5080121;28;20047;-82
2023/12/24 12:40:12;;;;;;;13.20;2.55;;;;;;;;;;5095541;28;20473;-81
2023/12/24 12:42:38;;;;;;;13.55;2.28;;;;;;;;;;5079172;28;20139;-81
2023/12/24 12:45:04;;;;;;;7.97;1.45;;;;;;;;;;5079178;28;20502;-81
2023/12/24 12:47:30;;;;;;;8.63;1.58;;;;;;;;;;5096130;28;20483;-81
2023/12/24 12:49:56;;;;;;;6.05;1.30;;;;;;;;;;5079108;28;20127;-81
2023/12/24 12:52:22;;;;;;;7.88;1.48;;;;;;;;;;5079071;28;20053;-80
2023/12/24 12:54:48;;;;;;;7.70;1.75;;;;;;;;;;5079084;28;20126;-80
2023/12/24 12:57:34;;;;;;;6.05;1.30;;;;;;;;;;5096592;28;20048;-80
2023/12/24 13:00:10;;;;;;;8.55;1.65;;;;;;;;;;5095630;28;20101;-80
2023/12/24 13:02:38;;;;;;;8.25;1.63;;;;;;;;;;5095340;28;20055;-80
2023/12/24 13:05:05;;;;;;;8.23;1.67;;;;;;;;;;5095756;28;20047;-80
2023/12/24 13:07:31;;;;;;;8.38;1.70;;;;;;;;;;5095706;28;20046;-80
2023/12/24 13:09:58;;;;;;;8.93;2.33;;;;;;;;;;5095729;28;20100;-80
2023/12/24 13:12:24;;;;;;;9.07;2.22;;;;;;;;;;5079342;28;20054;-80
2023/12/24 13:14:56;;;;;;;9.88;2.20;;;;;;;;;;5078453;28;20483;-80
2023/12/24 13:17:22;;;;;;;11.32;2.85;;;;;;;;;;5095981;28;20059;-80
2023/12/24 13:19:49;;;;;;;9.90;2.10;;;;;;;;;;5078831;28;20046;-81
2023/12/24 13:22:15;;;;;;;10.05;3.28;;;;;;;;;;5096504;28;20054;-81
2023/12/24 13:24:41;;;;;;;8.55;2.53;;;;;;;;;;5079656;28;20047;-81
2023/12/24 13:27:08;;;;;;;14.57;4.00;;;;;;;;;;5095410;28;20054;-82
2023/12/24 13:29:35;;;;;;;11.88;4.30;;;;;;;;;;5098409;28;20047;-78
2023/12/24 13:32:01;;;;;;;16.80;4.38;;;;;;;;;;5082262;28;20643;-79
2023/12/24 13:34:28;;;;;;;16.40;4.32;;;;;;;;;;5099148;28;20081;-78
2023/12/24 13:36:54;;;;;;;17.52;4.90;;;;;;;;;;5099052;28;20468;-78
2023/12/24 13:39:20;;;;;;;13.25;4.47;;;;;;;;;;5082106;28;20131;-78
2023/12/24 13:41:46;;;;;;;16.05;4.45;;;;;;;;;;5082213;28;20126;-78
2023/12/24 13:44:12;;;;;;;16.00;5.10;;;;;;;;;;5082331;28;20036;-77
2023/12/24 13:46:40;;;;;;;13.85;3.22;;;;;;;;;;5116850;28;20048;-77
2023/12/24 13:49:09;;;;;;;20.67;4.30;;;;;;;;;;5116884;28;20044;-78
2023/12/24 13:51:38;;;;;;;15.93;4.00;;;;;;;;;;5099153;28;20058;-78
2023/12/24 13:54:05;;;;;;;17.33;3.35;;;;;;;;;;5098886;28;20044;-77
2023/12/24 13:56:33;;;;;;;10.43;3.28;;;;;;;;;;5098683;28;20093;-76
2023/12/24 13:58:59;;;;;;;16.50;3.53;;;;;;;;;;5098724;28;20039;-76
2023/12/24 14:01:25;;;;;;;13.30;2.95;;;;;;;;;;5098459;28;20067;-76
2023/12/24 14:03:51;;;;;;;12.80;2.75;;;;;;;;;;5098830;28;20090;-77
2023/12/24 14:06:17;;;;;;;13.48;3.00;;;;;;;;;;5098457;28;20036;-76
2023/12/24 14:08:43;;;;;;;9.95;2.78;;;;;;;;;;5099282;28;20055;-75
2023/12/24 14:11:09;;;;;;;9.27;2.72;;;;;;;;;;5098932;28;20391;-76
2023/12/24 14:13:35;;;;;;;11.57;2.63;;;;;;;;;;5116332;28;20048;-76
2023/12/24 14:16:02;;;;;;;5.28;1.98;;;;;;;;;;5097753;28;20048;-79
2023/12/24 14:18:29;;;;;;;11.38;2.80;;;;;;;;;;5098007;28;20497;-77
2023/12/24 14:20:55;;;;;;;10.10;2.38;;;;;;;;;;5097999;28;20384;-78
2023/12/24 14:23:21;;;;;;;11.27;2.22;;;;;;;;;;5098058;28;20135;-77
2023/12/24 14:25:47;;;;;;;11.02;6.88;;;;;;;;;;5115849;28;20089;-76
2023/12/24 14:28:13;;;;;;;10.65;6.03;;;;;;;;;;5097839;28;20082;-76
2023/12/24 14:30:39;;;;;;;11.10;4.57;;;;;;;;;;5115783;28;20040;-76
2023/12/24 14:33:05;;;;;;;6.72;2.58;;;;;;;;;;5097784;28;20130;-76
2023/12/24 14:35:31;;;;;;;7.13;2.88;;;;;;;;;;5115417;28;20093;-79